sensor_id;sensor_type;location;lat;lon;timestamp;P1;durP1;ratioP1;P2;durP2;ratioP2
22786;SDS011;63134;52.020;4.714;2022-09-28T00:01:46;5.03;;;2.15;;
22786;SDS011;63134;52.020;4.714;2022-09-28T00:04:32;18.38;;;2.58;;
22786;SDS011;63134;52.020;4.714;2022-09-28T00:07:18;11.93;;;2.33;;
22786;SDS011;63134;52.020;4.714;2022-09-28T00:10:03;10.70;;;3.20;;
22786;SDS011;63134;52.020;4.714;2022-09-28T00:12:49;10.27;;;3.00;;
22786;SDS011;63134;52.020;4.714;2022-09-28T00:15:35;6.38;;;2.75;;
22786;SDS011;63134;52.020;4.714;2022-09-28T00:18:21;5.63;;;2.97;;
22786;SDS011;63134;52.020;4.714;2022-09-28T00:21:14;13.27;;;3.10;;
22786;SDS011;63134;52.020;4.714;2022-09-28T00:24:11;7.72;;;3.35;;
22786;SDS011;63134;52.020;4.714;2022-09-28T00:27:02;10.07;;;3.42;;
22786;SDS011;63134;52.020;4.714;2022-09-28T00:29:48;9.13;;;3.40;;
22786;SDS011;63134;52.020;4.714;2022-09-28T00:32:34;10.25;;;3.45;;
22786;SDS011;63134;52.020;4.714;2022-09-28T00:35:26;10.63;;;4.30;;
22786;SDS011;63134;52.020;4.714;2022-09-28T00:38:12;13.25;;;4.25;;
22786;SDS011;63134;52.020;4.714;2022-09-28T00:41:00;10.68;;;3.90;;
22786;SDS011;63134;52.020;4.714;2022-09-28T00:43:46;17.08;;;4.10;;
22786;SDS011;63134;52.020;4.714;2022-09-28T00:46:33;11.20;;;3.58;;
22786;SDS011;63134;52.020;4.714;2022-09-28T00:49:21;12.73;;;3.30;;
22786;SDS011;63134;52.020;4.714;2022-09-28T00:52:15;15.88;;;3.40;;
22786;SDS011;63134;52.020;4.714;2022-09-28T00:55:13;11.52;;;4.18;;
22786;SDS011;63134;52.020;4.714;2022-09-28T00:58:02;7.78;;;2.40;;
22786;SDS011;63134;52.020;4.714;2022-09-28T01:00:50;13.32;;;2.78;;
22786;SDS011;63134;52.020;4.714;2022-09-28T01:03:38;9.23;;;1.98;;
22786;SDS011;63134;52.020;4.714;2022-09-28T01:06:32;4.60;;;1.38;;
22786;SDS011;63134;52.020;4.714;2022-09-28T01:09:19;5.47;;;1.73;;
22786;SDS011;63134;52.020;4.714;2022-09-28T01:12:06;5.75;;;1.80;;
22786;SDS011;63134;52.020;4.714;2022-09-28T01:14:51;2.45;;;1.27;;
22786;SDS011;63134;52.020;4.714;2022-09-28T01:17:52;9.40;;;1.30;;
22786;SDS011;63134;52.020;4.714;2022-09-28T01:21:04;4.93;;;1.17;;
22786;SDS011;63134;52.020;4.714;2022-09-28T01:30:15;2.83;;;1.20;;
22786;SDS011;63134;52.020;4.714;2022-09-28T01:33:09;3.95;;;0.88;;
22786;SDS011;63134;52.020;4.714;2022-09-28T01:36:10;4.43;;;1.80;;
22786;SDS011;63134;52.020;4.714;2022-09-28T01:39:08;2.30;;;1.40;;
22786;SDS011;63134;52.020;4.714;2022-09-28T01:41:59;8.02;;;1.60;;
22786;SDS011;63134;52.020;4.714;2022-09-28T01:44:50;7.60;;;2.20;;
22786;SDS011;63134;52.020;4.714;2022-09-28T01:47:38;4.35;;;2.50;;
22786;SDS011;63134;52.020;4.714;2022-09-28T01:50:27;4.25;;;2.55;;
22786;SDS011;63134;52.020;4.714;2022-09-28T01:53:21;12.25;;;2.75;;
22786;SDS011;63134;52.020;4.714;2022-09-28T01:56:17;15.52;;;3.35;;
22786;SDS011;63134;52.020;4.714;2022-09-28T01:59:14;6.25;;;2.60;;
22786;SDS011;63134;52.020;4.714;2022-09-28T02:02:11;5.72;;;2.40;;
22786;SDS011;63134;52.020;4.714;2022-09-28T02:05:06;7.30;;;2.42;;
22786;SDS011;63134;52.020;4.714;2022-09-28T02:14:03;6.90;;;2.25;;
22786;SDS011;63134;52.020;4.714;2022-09-28T02:16:52;3.90;;;2.10;;
22786;SDS011;63134;52.020;4.714;2022-09-28T02:19:46;9.10;;;2.70;;
22786;SDS011;63134;52.020;4.714;2022-09-28T02:22:37;7.40;;;2.85;;
22786;SDS011;63134;52.020;4.714;2022-09-28T02:25:46;5.25;;;2.72;;
22786;SDS011;63134;52.020;4.714;2022-09-28T02:28:39;18.52;;;2.50;;
22786;SDS011;63134;52.020;4.714;2022-09-28T02:31:25;8.63;;;2.53;;
22786;SDS011;63134;52.020;4.714;2022-09-28T02:34:12;9.15;;;2.85;;
22786;SDS011;63134;52.020;4.714;2022-09-28T02:36:58;4.32;;;2.22;;
22786;SDS011;63134;52.020;4.714;2022-09-28T02:39:45;4.53;;;2.00;;
22786;SDS011;63134;52.020;4.714;2022-09-28T02:42:40;12.93;;;2.33;;
22786;SDS011;63134;52.020;4.714;2022-09-28T02:58:16;8.80;;;1.85;;
22786;SDS011;63134;52.020;4.714;2022-09-28T03:07:31;8.82;;;2.25;;
22786;SDS011;63134;52.020;4.714;2022-09-28T03:10:32;5.95;;;2.10;;
22786;SDS011;63134;52.020;4.714;2022-09-28T03:13:27;4.95;;;1.70;;
22786;SDS011;63134;52.020;4.714;2022-09-28T03:16:17;5.65;;;1.85;;
22786;SDS011;63134;52.020;4.714;2022-09-28T03:19:06;5.80;;;1.63;;
22786;SDS011;63134;52.020;4.714;2022-09-28T03:21:51;5.20;;;2.03;;
22786;SDS011;63134;52.020;4.714;2022-09-28T03:24:37;4.50;;;1.48;;
22786;SDS011;63134;52.020;4.714;2022-09-28T03:27:23;3.28;;;1.52;;
22786;SDS011;63134;52.020;4.714;2022-09-28T03:30:09;2.58;;;1.50;;
22786;SDS011;63134;52.020;4.714;2022-09-28T03:32:58;3.00;;;1.95;;
22786;SDS011;63134;52.020;4.714;2022-09-28T03:35:47;2.90;;;1.15;;
22786;SDS011;63134;52.020;4.714;2022-09-28T03:38:34;2.47;;;1.33;;
22786;SDS011;63134;52.020;4.714;2022-09-28T03:41:20;4.57;;;1.40;;
22786;SDS011;63134;52.020;4.714;2022-09-28T03:44:07;5.63;;;1.65;;
22786;SDS011;63134;52.020;4.714;2022-09-28T03:46:53;7.32;;;1.70;;
22786;SDS011;63134;52.020;4.714;2022-09-28T03:49:48;2.90;;;1.65;;
22786;SDS011;63134;52.020;4.714;2022-09-28T03:52:33;5.03;;;1.50;;
22786;SDS011;63134;52.020;4.714;2022-09-28T03:55:19;8.00;;;1.45;;
22786;SDS011;63134;52.020;4.714;2022-09-28T03:58:04;3.42;;;1.63;;
22786;SDS011;63134;52.020;4.714;2022-09-28T04:00:50;2.50;;;1.25;;
22786;SDS011;63134;52.020;4.714;2022-09-28T04:03:35;3.42;;;1.50;;
22786;SDS011;63134;52.020;4.714;2022-09-28T04:06:24;3.50;;;1.50;;
22786;SDS011;63134;52.020;4.714;2022-09-28T04:09:17;3.63;;;1.40;;
22786;SDS011;63134;52.020;4.714;2022-09-28T04:12:02;6.10;;;1.85;;
22786;SDS011;63134;52.020;4.714;2022-09-28T04:14:49;3.80;;;1.23;;
22786;SDS011;63134;52.020;4.714;2022-09-28T04:17:35;4.00;;;1.80;;
22786;SDS011;63134;52.020;4.714;2022-09-28T04:20:29;1.95;;;1.25;;
22786;SDS011;63134;52.020;4.714;2022-09-28T04:23:18;2.83;;;1.40;;
22786;SDS011;63134;52.020;4.714;2022-09-28T04:26:05;5.30;;;1.40;;
22786;SDS011;63134;52.020;4.714;2022-09-28T04:28:51;2.35;;;1.20;;
22786;SDS011;63134;52.020;4.714;2022-09-28T04:31:56;3.80;;;1.30;;
22786;SDS011;63134;52.020;4.714;2022-09-28T04:34:52;4.32;;;1.27;;
22786;SDS011;63134;52.020;4.714;2022-09-28T04:37:41;3.08;;;1.08;;
22786;SDS011;63134;52.020;4.714;2022-09-28T04:40:26;4.57;;;1.30;;
22786;SDS011;63134;52.020;4.714;2022-09-28T04:43:13;3.92;;;1.35;;
22786;SDS011;63134;52.020;4.714;2022-09-28T04:46:02;1.95;;;1.08;;
22786;SDS011;63134;52.020;4.714;2022-09-28T04:48:58;1.90;;;1.13;;
22786;SDS011;63134;52.020;4.714;2022-09-28T04:52:06;2.20;;;1.13;;
22786;SDS011;63134;52.020;4.714;2022-09-28T04:54:52;4.60;;;1.20;;
22786;SDS011;63134;52.020;4.714;2022-09-28T04:57:38;3.55;;;1.10;;
22786;SDS011;63134;52.020;4.714;2022-09-28T05:00:27;9.52;;;1.38;;
22786;SDS011;63134;52.020;4.714;2022-09-28T05:03:23;6.50;;;1.30;;
22786;SDS011;63134;52.020;4.714;2022-09-28T05:06:33;2.90;;;1.55;;
22786;SDS011;63134;52.020;4.714;2022-09-28T05:09:22;8.27;;;1.70;;
22786;SDS011;63134;52.020;4.714;2022-09-28T05:12:08;4.07;;;1.30;;
22786;SDS011;63134;52.020;4.714;2022-09-28T05:14:55;6.50;;;1.58;;
22786;SDS011;63134;52.020;4.714;2022-09-28T05:17:40;4.80;;;1.60;;
22786;SDS011;63134;52.020;4.714;2022-09-28T05:20:45;6.07;;;1.70;;
22786;SDS011;63134;52.020;4.714;2022-09-28T05:23:31;4.80;;;1.50;;
22786;SDS011;63134;52.020;4.714;2022-09-28T05:26:18;5.53;;;1.80;;
22786;SDS011;63134;52.020;4.714;2022-09-28T05:29:04;6.93;;;1.65;;
22786;SDS011;63134;52.020;4.714;2022-09-28T05:32:09;5.38;;;1.42;;
22786;SDS011;63134;52.020;4.714;2022-09-28T05:35:06;8.90;;;2.00;;
22786;SDS011;63134;52.020;4.714;2022-09-28T05:38:02;12.63;;;2.33;;
22786;SDS011;63134;52.020;4.714;2022-09-28T05:40:50;11.90;;;2.08;;
22786;SDS011;63134;52.020;4.714;2022-09-28T05:43:35;10.57;;;1.92;;
22786;SDS011;63134;52.020;4.714;2022-09-28T05:46:23;11.90;;;2.00;;
22786;SDS011;63134;52.020;4.714;2022-09-28T05:49:09;6.68;;;2.10;;
22786;SDS011;63134;52.020;4.714;2022-09-28T05:51:54;8.30;;;1.75;;
22786;SDS011;63134;52.020;4.714;2022-09-28T05:54:40;6.18;;;1.27;;
22786;SDS011;63134;52.020;4.714;2022-09-28T05:57:27;6.15;;;1.67;;
22786;SDS011;63134;52.020;4.714;2022-09-28T06:00:14;4.45;;;1.38;;
22786;SDS011;63134;52.020;4.714;2022-09-28T06:03:11;7.57;;;1.85;;
22786;SDS011;63134;52.020;4.714;2022-09-28T06:06:01;4.78;;;1.20;;
22786;SDS011;63134;52.020;4.714;2022-09-28T06:08:48;7.18;;;2.05;;
22786;SDS011;63134;52.020;4.714;2022-09-28T06:11:52;3.88;;;1.60;;
22786;SDS011;63134;52.020;4.714;2022-09-28T06:14:48;5.25;;;1.67;;
22786;SDS011;63134;52.020;4.714;2022-09-28T06:17:33;5.05;;;1.60;;
22786;SDS011;63134;52.020;4.714;2022-09-28T06:20:48;3.20;;;1.50;;
22786;SDS011;63134;52.020;4.714;2022-09-28T06:23:49;2.65;;;1.35;;
22786;SDS011;63134;52.020;4.714;2022-09-28T06:26:35;4.53;;;1.40;;
22786;SDS011;63134;52.020;4.714;2022-09-28T06:29:22;7.22;;;1.67;;
22786;SDS011;63134;52.020;4.714;2022-09-28T06:32:07;3.78;;;1.60;;
22786;SDS011;63134;52.020;4.714;2022-09-28T06:34:55;4.22;;;1.58;;
22786;SDS011;63134;52.020;4.714;2022-09-28T06:37:45;4.90;;;1.50;;
22786;SDS011;63134;52.020;4.714;2022-09-28T06:40:32;7.30;;;1.90;;
22786;SDS011;63134;52.020;4.714;2022-09-28T06:43:17;4.88;;;1.77;;
22786;SDS011;63134;52.020;4.714;2022-09-28T06:46:22;7.43;;;1.80;;
22786;SDS011;63134;52.020;4.714;2022-09-28T06:49:27;5.53;;;1.83;;
22786;SDS011;63134;52.020;4.714;2022-09-28T06:52:32;4.20;;;1.85;;
22786;SDS011;63134;52.020;4.714;2022-09-28T06:55:45;6.63;;;2.00;;
22786;SDS011;63134;52.020;4.714;2022-09-28T06:58:34;8.85;;;1.83;;
22786;SDS011;63134;52.020;4.714;2022-09-28T07:01:20;8.57;;;2.25;;
22786;SDS011;63134;52.020;4.714;2022-09-28T07:04:18;4.32;;;1.80;;
22786;SDS011;63134;52.020;4.714;2022-09-28T07:07:26;9.85;;;1.90;;
22786;SDS011;63134;52.020;4.714;2022-09-28T07:10:42;4.03;;;2.10;;
22786;SDS011;63134;52.020;4.714;2022-09-28T07:13:54;8.77;;;2.10;;
22786;SDS011;63134;52.020;4.714;2022-09-28T07:16:40;4.72;;;2.60;;
22786;SDS011;63134;52.020;4.714;2022-09-28T07:19:46;6.93;;;1.90;;
22786;SDS011;63134;52.020;4.714;2022-09-28T07:22:36;6.03;;;1.75;;
22786;SDS011;63134;52.020;4.714;2022-09-28T07:25:31;4.17;;;1.77;;
22786;SDS011;63134;52.020;4.714;2022-09-28T07:28:35;9.18;;;2.03;;
22786;SDS011;63134;52.020;4.714;2022-09-28T07:31:53;4.25;;;1.23;;
22786;SDS011;63134;52.020;4.714;2022-09-28T07:34:47;3.42;;;1.13;;
22786;SDS011;63134;52.020;4.714;2022-09-28T07:37:44;6.25;;;1.10;;
22786;SDS011;63134;52.020;4.714;2022-09-28T07:40:30;4.57;;;1.55;;
22786;SDS011;63134;52.020;4.714;2022-09-28T07:43:35;3.78;;;1.50;;
22786;SDS011;63134;52.020;4.714;2022-09-28T07:46:23;5.20;;;1.55;;
22786;SDS011;63134;52.020;4.714;2022-09-28T07:49:15;4.18;;;1.45;;
22786;SDS011;63134;52.020;4.714;2022-09-28T07:52:12;5.60;;;1.70;;
22786;SDS011;63134;52.020;4.714;2022-09-28T07:55:24;3.90;;;1.73;;
22786;SDS011;63134;52.020;4.714;2022-09-28T08:01:30;8.20;;;2.17;;
22786;SDS011;63134;52.020;4.714;2022-09-28T08:04:16;8.38;;;2.15;;
22786;SDS011;63134;52.020;4.714;2022-09-28T08:07:10;5.47;;;2.30;;
22786;SDS011;63134;52.020;4.714;2022-09-28T08:09:57;4.80;;;1.92;;
22786;SDS011;63134;52.020;4.714;2022-09-28T08:12:45;4.18;;;2.05;;
22786;SDS011;63134;52.020;4.714;2022-09-28T08:15:54;7.28;;;2.22;;
22786;SDS011;63134;52.020;4.714;2022-09-28T08:18:51;6.10;;;1.70;;
22786;SDS011;63134;52.020;4.714;2022-09-28T08:21:37;5.90;;;1.90;;
22786;SDS011;63134;52.020;4.714;2022-09-28T08:24:31;6.47;;;1.58;;
22786;SDS011;63134;52.020;4.714;2022-09-28T08:27:19;3.33;;;1.58;;
22786;SDS011;63134;52.020;4.714;2022-09-28T08:30:05;3.75;;;1.33;;
22786;SDS011;63134;52.020;4.714;2022-09-28T08:33:04;3.58;;;1.23;;
22786;SDS011;63134;52.020;4.714;2022-09-28T08:36:00;8.43;;;1.48;;
22786;SDS011;63134;52.020;4.714;2022-09-28T08:39:12;2.55;;;1.10;;
22786;SDS011;63134;52.020;4.714;2022-09-28T08:42:34;3.85;;;1.33;;
22786;SDS011;63134;52.020;4.714;2022-09-28T08:45:44;3.97;;;1.38;;
22786;SDS011;63134;52.020;4.714;2022-09-28T08:48:57;4.38;;;1.60;;
22786;SDS011;63134;52.020;4.714;2022-09-28T08:52:36;1.98;;;1.25;;
22786;SDS011;63134;52.020;4.714;2022-09-28T08:55:39;2.17;;;1.33;;
22786;SDS011;63134;52.020;4.714;2022-09-28T08:58:31;3.58;;;1.20;;
22786;SDS011;63134;52.020;4.714;2022-09-28T09:01:21;4.88;;;1.60;;
22786;SDS011;63134;52.020;4.714;2022-09-28T09:04:11;4.50;;;1.27;;
22786;SDS011;63134;52.020;4.714;2022-09-28T09:20:18;4.22;;;1.42;;
22786;SDS011;63134;52.020;4.714;2022-09-28T09:26:15;2.85;;;0.90;;
22786;SDS011;63134;52.020;4.714;2022-09-28T09:38:58;5.00;;;1.00;;
22786;SDS011;63134;52.020;4.714;2022-09-28T09:42:37;1.43;;;0.80;;
22786;SDS011;63134;52.020;4.714;2022-09-28T09:55:03;1.75;;;0.90;;
22786;SDS011;63134;52.020;4.714;2022-09-28T09:58:14;2.15;;;0.80;;
22786;SDS011;63134;52.020;4.714;2022-09-28T10:01:59;2.95;;;0.90;;
22786;SDS011;63134;52.020;4.714;2022-09-28T10:05:00;4.13;;;0.70;;
22786;SDS011;63134;52.020;4.714;2022-09-28T10:07:54;1.83;;;0.80;;
22786;SDS011;63134;52.020;4.714;2022-09-28T10:10:48;1.23;;;0.75;;
22786;SDS011;63134;52.020;4.714;2022-09-28T10:13:38;1.23;;;0.70;;
22786;SDS011;63134;52.020;4.714;2022-09-28T10:16:44;1.20;;;0.77;;
22786;SDS011;63134;52.020;4.714;2022-09-28T10:19:41;2.58;;;1.13;;
22786;SDS011;63134;52.020;4.714;2022-09-28T10:22:46;4.28;;;0.93;;
22786;SDS011;63134;52.020;4.714;2022-09-28T10:25:35;3.15;;;0.80;;
22786;SDS011;63134;52.020;4.714;2022-09-28T10:28:33;1.85;;;0.88;;
22786;SDS011;63134;52.020;4.714;2022-09-28T10:31:41;2.80;;;0.90;;
22786;SDS011;63134;52.020;4.714;2022-09-28T10:34:45;3.15;;;0.90;;
22786;SDS011;63134;52.020;4.714;2022-09-28T10:37:53;3.13;;;0.80;;
22786;SDS011;63134;52.020;4.714;2022-09-28T10:41:12;2.05;;;0.80;;
22786;SDS011;63134;52.020;4.714;2022-09-28T10:44:10;3.55;;;1.25;;
22786;SDS011;63134;52.020;4.714;2022-09-28T10:47:27;2.42;;;1.02;;
22786;SDS011;63134;52.020;4.714;2022-09-28T10:50:22;4.25;;;1.10;;
22786;SDS011;63134;52.020;4.714;2022-09-28T10:53:20;1.73;;;0.80;;
22786;SDS011;63134;52.020;4.714;2022-09-28T11:02:30;3.75;;;0.93;;
22786;SDS011;63134;52.020;4.714;2022-09-28T11:05:29;2.42;;;0.80;;
22786;SDS011;63134;52.020;4.714;2022-09-28T11:08:15;4.50;;;0.70;;
22786;SDS011;63134;52.020;4.714;2022-09-28T11:11:09;2.85;;;0.65;;
22786;SDS011;63134;52.020;4.714;2022-09-28T11:14:01;3.58;;;0.73;;
22786;SDS011;63134;52.020;4.714;2022-09-28T11:20:47;2.20;;;0.57;;
22786;SDS011;63134;52.020;4.714;2022-09-28T11:23:18;1.58;;;0.60;;
22786;SDS011;63134;52.020;4.714;2022-09-28T11:26:11;1.63;;;0.60;;
22786;SDS011;63134;52.020;4.714;2022-09-28T11:29:03;4.88;;;0.98;;
22786;SDS011;63134;52.020;4.714;2022-09-28T11:32:03;1.80;;;0.60;;
22786;SDS011;63134;52.020;4.714;2022-09-28T11:35:02;2.03;;;0.65;;
22786;SDS011;63134;52.020;4.714;2022-09-28T11:37:58;2.08;;;0.65;;
22786;SDS011;63134;52.020;4.714;2022-09-28T11:41:43;1.25;;;0.90;;
22786;SDS011;63134;52.020;4.714;2022-09-28T11:44:37;4.97;;;0.98;;
22786;SDS011;63134;52.020;4.714;2022-09-28T11:53:42;1.98;;;0.88;;
22786;SDS011;63134;52.020;4.714;2022-09-28T11:56:37;4.07;;;0.77;;
22786;SDS011;63134;52.020;4.714;2022-09-28T11:59:26;4.68;;;0.70;;
22786;SDS011;63134;52.020;4.714;2022-09-28T12:02:38;2.88;;;0.80;;
22786;SDS011;63134;52.020;4.714;2022-09-28T12:05:48;4.15;;;0.82;;
22786;SDS011;63134;52.020;4.714;2022-09-28T12:08:41;48.80;;;3.53;;
22786;SDS011;63134;52.020;4.714;2022-09-28T12:12:02;78.72;;;4.40;;
22786;SDS011;63134;52.020;4.714;2022-09-28T12:15:11;41.33;;;2.83;;
22786;SDS011;63134;52.020;4.714;2022-09-28T12:18:05;6.22;;;1.48;;
22786;SDS011;63134;52.020;4.714;2022-09-28T12:24:11;8.32;;;3.17;;
22786;SDS011;63134;52.020;4.714;2022-09-28T12:48:20;2.40;;;1.63;;
22786;SDS011;63134;52.020;4.714;2022-09-28T12:51:34;6.20;;;1.63;;
22786;SDS011;63134;52.020;4.714;2022-09-28T12:54:32;11.20;;;2.07;;
22786;SDS011;63134;52.020;4.714;2022-09-28T13:00:30;4.60;;;1.58;;
22786;SDS011;63134;52.020;4.714;2022-09-28T13:03:32;5.80;;;1.63;;
22786;SDS011;63134;52.020;4.714;2022-09-28T13:06:49;4.97;;;1.40;;
22786;SDS011;63134;52.020;4.714;2022-09-28T13:13:11;12.45;;;2.33;;
22786;SDS011;63134;52.020;4.714;2022-09-28T13:19:14;23.63;;;2.60;;
22786;SDS011;63134;52.020;4.714;2022-09-28T13:25:31;11.18;;;2.03;;
22786;SDS011;63134;52.020;4.714;2022-09-28T13:28:20;13.10;;;1.70;;
22786;SDS011;63134;52.020;4.714;2022-09-28T13:31:11;13.73;;;1.90;;
22786;SDS011;63134;52.020;4.714;2022-09-28T13:34:04;15.45;;;2.03;;
22786;SDS011;63134;52.020;4.714;2022-09-28T13:40:13;31.05;;;3.40;;
22786;SDS011;63134;52.020;4.714;2022-09-28T13:43:04;8.63;;;2.33;;
22786;SDS011;63134;52.020;4.714;2022-09-28T13:46:09;6.80;;;3.08;;
22786;SDS011;63134;52.020;4.714;2022-09-28T13:49:11;9.40;;;4.32;;
22786;SDS011;63134;52.020;4.714;2022-09-28T13:52:12;5.10;;;2.78;;
22786;SDS011;63134;52.020;4.714;2022-09-28T13:58:47;9.45;;;4.10;;
22786;SDS011;63134;52.020;4.714;2022-09-28T14:04:52;15.38;;;5.45;;
22786;SDS011;63134;52.020;4.714;2022-09-28T14:16:29;17.77;;;6.32;;
22786;SDS011;63134;52.020;4.714;2022-09-28T14:22:19;3.83;;;2.42;;
22786;SDS011;63134;52.020;4.714;2022-09-28T14:25:15;10.63;;;4.25;;
22786;SDS011;63134;52.020;4.714;2022-09-28T14:31:14;6.53;;;2.57;;
22786;SDS011;63134;52.020;4.714;2022-09-28T14:34:21;3.67;;;1.90;;
22786;SDS011;63134;52.020;4.714;2022-09-28T14:41:02;3.08;;;1.58;;
22786;SDS011;63134;52.020;4.714;2022-09-28T14:44:06;6.88;;;1.60;;
22786;SDS011;63134;52.020;4.714;2022-09-28T14:50:33;3.40;;;1.20;;
22786;SDS011;63134;52.020;4.714;2022-09-28T14:53:19;3.47;;;0.90;;
22786;SDS011;63134;52.020;4.714;2022-09-28T14:56:07;3.30;;;0.80;;
22786;SDS011;63134;52.020;4.714;2022-09-28T14:58:54;1.90;;;0.60;;
22786;SDS011;63134;52.020;4.714;2022-09-28T15:01:43;1.58;;;0.88;;
22786;SDS011;63134;52.020;4.714;2022-09-28T15:04:37;2.28;;;0.70;;
22786;SDS011;63134;52.020;4.714;2022-09-28T15:07:50;1.90;;;0.75;;
22786;SDS011;63134;52.020;4.714;2022-09-28T15:10:47;2.15;;;0.80;;
22786;SDS011;63134;52.020;4.714;2022-09-28T15:13:34;2.67;;;0.80;;
22786;SDS011;63134;52.020;4.714;2022-09-28T15:16:21;0.70;;;0.70;;
22786;SDS011;63134;52.020;4.714;2022-09-28T15:19:25;2.03;;;0.68;;
22786;SDS011;63134;52.020;4.714;2022-09-28T15:22:17;2.45;;;0.80;;
22786;SDS011;63134;52.020;4.714;2022-09-28T15:25:11;2.17;;;1.00;;
22786;SDS011;63134;52.020;4.714;2022-09-28T15:27:59;1.15;;;0.70;;
22786;SDS011;63134;52.020;4.714;2022-09-28T15:31:05;2.42;;;0.80;;
22786;SDS011;63134;52.020;4.714;2022-09-28T15:34:01;3.00;;;0.95;;
22786;SDS011;63134;52.020;4.714;2022-09-28T15:37:06;2.35;;;0.70;;
22786;SDS011;63134;52.020;4.714;2022-09-28T15:39:55;1.67;;;1.00;;
22786;SDS011;63134;52.020;4.714;2022-09-28T15:42:43;1.85;;;1.08;;
22786;SDS011;63134;52.020;4.714;2022-09-28T15:45:33;1.13;;;1.02;;
22786;SDS011;63134;52.020;4.714;2022-09-28T15:51:24;1.80;;;1.05;;
22786;SDS011;63134;52.020;4.714;2022-09-28T15:54:13;0.80;;;0.70;;
22786;SDS011;63134;52.020;4.714;2022-09-28T15:57:03;2.42;;;1.17;;
22786;SDS011;63134;52.020;4.714;2022-09-28T15:59:54;3.90;;;1.13;;
22786;SDS011;63134;52.020;4.714;2022-09-28T16:06:17;3.83;;;1.33;;
22786;SDS011;63134;52.020;4.714;2022-09-28T16:09:02;2.92;;;1.20;;
22786;SDS011;63134;52.020;4.714;2022-09-28T16:11:47;2.75;;;1.20;;
22786;SDS011;63134;52.020;4.714;2022-09-28T16:14:34;1.25;;;0.73;;
22786;SDS011;63134;52.020;4.714;2022-09-28T16:17:30;3.38;;;1.15;;
22786;SDS011;63134;52.020;4.714;2022-09-28T16:20:24;4.15;;;1.10;;
22786;SDS011;63134;52.020;4.714;2022-09-28T16:26:25;1.85;;;1.10;;
22786;SDS011;63134;52.020;4.714;2022-09-28T16:29:33;2.40;;;0.90;;
22786;SDS011;63134;52.020;4.714;2022-09-28T16:37:59;3.85;;;0.95;;
22786;SDS011;63134;52.020;4.714;2022-09-28T16:41:07;2.70;;;0.90;;
22786;SDS011;63134;52.020;4.714;2022-09-28T16:43:53;2.03;;;0.80;;
22786;SDS011;63134;52.020;4.714;2022-09-28T16:46:42;1.85;;;0.80;;
22786;SDS011;63134;52.020;4.714;2022-09-28T16:49:36;1.13;;;0.70;;
22786;SDS011;63134;52.020;4.714;2022-09-28T16:52:23;2.03;;;0.90;;
22786;SDS011;63134;52.020;4.714;2022-09-28T16:55:27;4.82;;;1.10;;
22786;SDS011;63134;52.020;4.714;2022-09-28T16:58:25;3.03;;;0.80;;
22786;SDS011;63134;52.020;4.714;2022-09-28T17:01:11;4.70;;;1.17;;
22786;SDS011;63134;52.020;4.714;2022-09-28T17:04:00;2.67;;;1.15;;
22786;SDS011;63134;52.020;4.714;2022-09-28T17:06:45;5.43;;;1.20;;
22786;SDS011;63134;52.020;4.714;2022-09-28T17:09:36;4.05;;;1.30;;
22786;SDS011;63134;52.020;4.714;2022-09-28T17:12:21;5.22;;;1.20;;
22786;SDS011;63134;52.020;4.714;2022-09-28T17:15:12;4.82;;;1.30;;
22786;SDS011;63134;52.020;4.714;2022-09-28T17:17:59;3.45;;;1.50;;
22786;SDS011;63134;52.020;4.714;2022-09-28T17:20:49;7.97;;;2.50;;
22786;SDS011;63134;52.020;4.714;2022-09-28T17:23:48;5.28;;;2.60;;
22786;SDS011;63134;52.020;4.714;2022-09-28T17:26:34;3.17;;;1.70;;
22786;SDS011;63134;52.020;4.714;2022-09-28T17:29:20;11.40;;;3.83;;
22786;SDS011;63134;52.020;4.714;2022-09-28T17:32:11;12.98;;;3.13;;
22786;SDS011;63134;52.020;4.714;2022-09-28T17:35:01;12.80;;;2.95;;
22786;SDS011;63134;52.020;4.714;2022-09-28T17:38:07;10.90;;;2.67;;
22786;SDS011;63134;52.020;4.714;2022-09-28T17:41:02;11.00;;;2.50;;
22786;SDS011;63134;52.020;4.714;2022-09-28T17:43:48;13.13;;;2.78;;
22786;SDS011;63134;52.020;4.714;2022-09-28T17:46:37;9.57;;;2.45;;
22786;SDS011;63134;52.020;4.714;2022-09-28T17:49:24;6.57;;;2.55;;
22786;SDS011;63134;52.020;4.714;2022-09-28T17:52:10;7.53;;;3.45;;
22786;SDS011;63134;52.020;4.714;2022-09-28T17:54:55;12.93;;;3.55;;
22786;SDS011;63134;52.020;4.714;2022-09-28T17:57:40;10.98;;;3.00;;
22786;SDS011;63134;52.020;4.714;2022-09-28T18:00:26;8.85;;;2.80;;
22786;SDS011;63134;52.020;4.714;2022-09-28T18:03:19;12.98;;;2.78;;
22786;SDS011;63134;52.020;4.714;2022-09-28T18:06:17;7.82;;;2.88;;
22786;SDS011;63134;52.020;4.714;2022-09-28T18:09:15;10.10;;;2.90;;
22786;SDS011;63134;52.020;4.714;2022-09-28T18:12:02;11.15;;;2.97;;
22786;SDS011;63134;52.020;4.714;2022-09-28T18:14:48;7.80;;;2.63;;
22786;SDS011;63134;52.020;4.714;2022-09-28T18:17:34;3.97;;;2.42;;
22786;SDS011;63134;52.020;4.714;2022-09-28T18:20:20;6.30;;;2.30;;
22786;SDS011;63134;52.020;4.714;2022-09-28T18:23:05;5.20;;;2.85;;
22786;SDS011;63134;52.020;4.714;2022-09-28T18:25:54;5.15;;;3.45;;
22786;SDS011;63134;52.020;4.714;2022-09-28T18:28:40;7.63;;;3.28;;
22786;SDS011;63134;52.020;4.714;2022-09-28T18:31:26;7.85;;;3.80;;
22786;SDS011;63134;52.020;4.714;2022-09-28T18:34:12;8.05;;;3.60;;
22786;SDS011;63134;52.020;4.714;2022-09-28T18:36:57;5.85;;;2.47;;
22786;SDS011;63134;52.020;4.714;2022-09-28T18:39:43;6.47;;;4.15;;
22786;SDS011;63134;52.020;4.714;2022-09-28T18:42:29;19.05;;;7.72;;
22786;SDS011;63134;52.020;4.714;2022-09-28T18:45:21;15.75;;;7.13;;
22786;SDS011;63134;52.020;4.714;2022-09-28T18:48:07;15.43;;;10.15;;
22786;SDS011;63134;52.020;4.714;2022-09-28T18:50:52;22.52;;;8.82;;
22786;SDS011;63134;52.020;4.714;2022-09-28T18:53:38;19.75;;;10.02;;
22786;SDS011;63134;52.020;4.714;2022-09-28T18:56:27;14.85;;;8.15;;
22786;SDS011;63134;52.020;4.714;2022-09-28T18:59:13;22.90;;;12.48;;
22786;SDS011;63134;52.020;4.714;2022-09-28T19:02:01;21.40;;;10.52;;
22786;SDS011;63134;52.020;4.714;2022-09-28T19:04:47;15.57;;;9.38;;
22786;SDS011;63134;52.020;4.714;2022-09-28T19:07:32;21.42;;;12.70;;
22786;SDS011;63134;52.020;4.714;2022-09-28T19:10:19;28.02;;;15.27;;
22786;SDS011;63134;52.020;4.714;2022-09-28T19:13:06;24.05;;;12.98;;
22786;SDS011;63134;52.020;4.714;2022-09-28T19:15:54;13.55;;;9.15;;
22786;SDS011;63134;52.020;4.714;2022-09-28T19:18:40;11.25;;;7.13;;
22786;SDS011;63134;52.020;4.714;2022-09-28T19:21:25;8.55;;;6.93;;
22786;SDS011;63134;52.020;4.714;2022-09-28T19:24:15;11.65;;;8.50;;
22786;SDS011;63134;52.020;4.714;2022-09-28T19:27:02;8.32;;;7.00;;
22786;SDS011;63134;52.020;4.714;2022-09-28T19:29:47;13.20;;;9.07;;
22786;SDS011;63134;52.020;4.714;2022-09-28T19:32:40;12.05;;;9.07;;
22786;SDS011;63134;52.020;4.714;2022-09-28T19:35:26;13.98;;;7.82;;
22786;SDS011;63134;52.020;4.714;2022-09-28T19:38:11;12.38;;;7.60;;
22786;SDS011;63134;52.020;4.714;2022-09-28T19:40:57;12.65;;;7.55;;
22786;SDS011;63134;52.020;4.714;2022-09-28T19:43:43;13.65;;;8.18;;
22786;SDS011;63134;52.020;4.714;2022-09-28T19:46:29;15.23;;;7.65;;
22786;SDS011;63134;52.020;4.714;2022-09-28T19:49:17;10.20;;;6.55;;
22786;SDS011;63134;52.020;4.714;2022-09-28T19:52:07;10.75;;;8.05;;
22786;SDS011;63134;52.020;4.714;2022-09-28T19:55:00;9.82;;;6.97;;
22786;SDS011;63134;52.020;4.714;2022-09-28T19:57:45;14.68;;;7.63;;
22786;SDS011;63134;52.020;4.714;2022-09-28T20:00:32;29.60;;;16.83;;
22786;SDS011;63134;52.020;4.714;2022-09-28T20:03:18;18.27;;;10.27;;
22786;SDS011;63134;52.020;4.714;2022-09-28T20:06:23;14.13;;;9.27;;
22786;SDS011;63134;52.020;4.714;2022-09-28T20:09:09;8.30;;;6.47;;
22786;SDS011;63134;52.020;4.714;2022-09-28T20:11:55;7.70;;;5.57;;
22786;SDS011;63134;52.020;4.714;2022-09-28T20:14:40;6.25;;;4.35;;